createdAt,value
2023-02-14T00:01:50.208Z,31.38
2023-02-14T00:04:21.185Z,37.10
2023-02-14T00:09:20.490Z,34.30
2023-02-14T00:11:49.108Z,38.50
2023-02-14T00:14:35.724Z,36.78
2023-02-14T00:17:04.649Z,35.45
2023-02-14T00:19:36.082Z,38.80
2023-02-14T00:22:05.881Z,35.13
2023-02-14T00:24:34.320Z,32.25
2023-02-14T00:27:03.238Z,32.40
2023-02-14T00:29:33.180Z,30.25
2023-02-14T00:32:02.536Z,32.42
2023-02-14T00:34:33.073Z,30.27
2023-02-14T00:37:03.558Z,30.83
2023-02-14T00:39:31.996Z,29.42
2023-02-14T00:42:00.831Z,29.17
2023-02-14T00:44:29.181Z,26.25
2023-02-14T00:46:58.145Z,26.60
2023-02-14T00:49:27.495Z,28.00
2023-02-14T00:51:56.038Z,30.70
2023-02-14T00:54:25.975Z,27.80
2023-02-14T00:56:54.658Z,30.13
2023-02-14T00:59:23.079Z,31.27
2023-02-14T01:01:52.049Z,32.25
2023-02-14T01:04:20.457Z,34.80
2023-02-14T01:06:49.378Z,34.15
2023-02-14T01:09:17.663Z,36.33
2023-02-14T01:11:49.017Z,35.70
2023-02-14T01:14:17.486Z,36.20
2023-02-14T01:16:46.253Z,35.05
2023-02-14T01:19:15.027Z,32.92
2023-02-14T01:21:43.769Z,33.17
2023-02-14T01:24:13.764Z,34.13
2023-02-14T01:26:42.429Z,31.58
2023-02-14T01:29:12.420Z,31.80
2023-02-14T01:31:41.280Z,29.98
2023-02-14T01:34:10.131Z,30.08
2023-02-14T01:36:40.344Z,30.52
2023-02-14T01:39:11.103Z,28.25
2023-02-14T01:44:48.189Z,30.25
2023-02-14T01:47:18.839Z,30.40
2023-02-14T01:49:50.548Z,31.23
2023-02-14T01:52:22.711Z,27.38
2023-02-14T01:54:54.150Z,28.90
2023-02-14T01:57:24.448Z,29.38
2023-02-14T01:59:54.759Z,27.70
2023-02-14T02:02:25.309Z,28.70
2023-02-14T02:04:55.828Z,27.75
2023-02-14T02:07:25.981Z,27.88
2023-02-14T02:09:56.824Z,29.00
2023-02-14T02:12:25.493Z,27.80
2023-02-14T02:14:56.195Z,26.67
2023-02-14T02:17:33.048Z,27.90
2023-02-14T02:20:30.173Z,26.52
2023-02-14T02:23:35.799Z,26.67
2023-02-14T02:26:30.045Z,30.27
2023-02-14T02:29:44.410Z,27.27
2023-02-14T02:32:39.052Z,29.27
2023-02-14T02:35:31.662Z,26.42
2023-02-14T02:38:12.798Z,27.75
2023-02-14T02:40:49.242Z,32.10
2023-02-14T02:43:27.576Z,28.77
2023-02-14T02:46:18.091Z,29.63
2023-02-14T02:48:49.621Z,28.50
2023-02-14T02:51:41.610Z,33.63
2023-02-14T02:54:13.891Z,29.92
2023-02-14T02:56:47.367Z,32.28
2023-02-14T02:59:19.871Z,29.38
2023-02-14T03:01:52.339Z,30.33
2023-02-14T03:04:38.758Z,27.92
2023-02-14T03:07:23.188Z,25.33
2023-02-14T03:09:54.101Z,31.45
2023-02-14T03:12:39.796Z,25.40
2023-02-14T03:15:13.607Z,25.02
2023-02-14T03:18:07.253Z,26.63
2023-02-14T03:20:40.306Z,22.30
2023-02-14T03:23:17.456Z,25.23
2023-02-14T03:25:54.994Z,24.27
2023-02-14T03:28:30.292Z,24.90
2023-02-14T03:31:02.224Z,25.60
2023-02-14T03:33:35.096Z,25.35
2023-02-14T03:36:05.525Z,25.50
2023-02-14T03:38:39.922Z,26.50
2023-02-14T03:41:10.769Z,28.58
2023-02-14T03:43:43.665Z,24.67
2023-02-14T03:46:13.482Z,25.50
2023-02-14T03:48:43.428Z,26.60
2023-02-14T03:51:13.983Z,27.83
2023-02-14T03:53:47.068Z,25.55
2023-02-14T03:56:18.917Z,24.70
2023-02-14T03:58:50.465Z,25.50
2023-02-14T04:01:23.145Z,21.70
2023-02-14T04:03:54.309Z,23.33
2023-02-14T04:06:22.838Z,26.98
2023-02-14T04:08:53.136Z,28.48
2023-02-14T04:11:24.093Z,24.10
2023-02-14T04:16:21.572Z,24.85
2023-02-14T04:19:06.697Z,20.88
2023-02-14T04:21:35.294Z,20.25
2023-02-14T04:24:06.045Z,23.75
2023-02-14T04:26:34.490Z,20.20
2023-02-14T04:29:03.070Z,19.63
2023-02-14T04:31:31.504Z,18.70
2023-02-14T04:34:00.485Z,23.45
2023-02-14T04:36:28.766Z,18.17
2023-02-14T04:38:57.672Z,18.88
2023-02-14T04:41:27.615Z,20.52
2023-02-14T04:43:56.171Z,17.45
2023-02-14T04:46:24.664Z,20.70
2023-02-14T04:48:53.214Z,19.20
2023-02-14T04:51:21.669Z,21.95
2023-02-14T04:53:50.394Z,22.80
2023-02-14T04:56:20.057Z,20.23
2023-02-14T04:58:49.924Z,21.80
2023-02-14T05:01:18.811Z,22.70
2023-02-14T05:03:47.912Z,18.00
2023-02-14T05:06:16.300Z,21.33
2023-02-14T05:08:45.015Z,18.98
2023-02-14T05:11:13.278Z,18.67
2023-02-14T05:13:42.114Z,20.02
2023-02-14T05:16:12.205Z,21.02
2023-02-14T05:18:40.999Z,18.80
2023-02-14T05:21:09.459Z,23.50
2023-02-14T05:23:38.323Z,18.85
2023-02-14T05:26:06.940Z,18.38
2023-02-14T05:28:37.044Z,20.33
2023-02-14T05:31:05.719Z,19.90
2023-02-14T05:33:35.970Z,22.38
2023-02-14T05:36:04.577Z,19.92
2023-02-14T05:38:35.161Z,22.35
2023-02-14T05:41:03.721Z,21.83
2023-02-14T05:43:32.350Z,22.08
2023-02-14T05:46:00.995Z,26.83
2023-02-14T05:48:29.708Z,25.38
2023-02-14T05:50:59.748Z,27.25
2023-02-14T05:53:28.735Z,33.55
2023-02-14T05:55:57.127Z,32.30
2023-02-14T05:58:27.009Z,26.35
2023-02-14T06:00:55.273Z,26.40
2023-02-14T06:03:23.980Z,27.73
2023-02-14T06:05:53.676Z,26.35
2023-02-14T06:08:24.094Z,23.67
2023-02-14T06:10:52.417Z,24.55
2023-02-14T06:13:22.423Z,26.02
2023-02-14T06:15:50.840Z,29.80
2023-02-14T06:18:19.414Z,25.10
2023-02-14T06:20:47.933Z,30.45
2023-02-14T06:23:16.487Z,29.75
2023-02-14T06:25:46.185Z,32.50
2023-02-14T06:28:15.013Z,34.88
2023-02-14T06:30:43.757Z,40.83
2023-02-14T06:33:12.481Z,41.35
2023-02-14T06:35:41.115Z,43.00
2023-02-14T06:38:09.698Z,48.60
2023-02-14T06:40:38.317Z,44.95
2023-02-14T06:43:08.573Z,39.72
2023-02-14T06:45:36.961Z,62.88
2023-02-14T06:48:06.306Z,56.88
2023-02-14T06:50:34.529Z,58.50
2023-02-14T06:53:06.988Z,50.97
2023-02-14T06:55:35.284Z,41.92
2023-02-14T06:58:04.138Z,40.80
2023-02-14T07:00:34.064Z,56.38
2023-02-14T07:03:03.237Z,37.53
2023-02-14T07:05:32.010Z,36.97
2023-02-14T07:08:00.743Z,47.85
2023-02-14T07:10:29.293Z,50.20
2023-02-14T07:12:57.977Z,38.83
2023-02-14T07:15:26.587Z,45.67
2023-02-14T07:17:56.618Z,36.50
2023-02-14T07:20:27.346Z,34.05
2023-02-14T07:22:56.279Z,33.15
2023-02-14T07:25:24.726Z,32.22
2023-02-14T07:27:53.578Z,30.20
2023-02-14T07:30:21.929Z,32.97
2023-02-14T07:32:50.716Z,32.42
2023-02-14T07:35:21.156Z,30.55
2023-02-14T07:37:51.752Z,43.65
2023-02-14T07:40:20.726Z,51.43
2023-02-14T07:42:55.316Z,36.92
2023-02-14T07:45:24.684Z,35.15
2023-02-14T07:47:54.883Z,33.55
2023-02-14T07:50:25.000Z,33.03
2023-02-14T07:52:53.743Z,32.92
2023-02-14T07:55:23.031Z,45.22
2023-02-14T07:57:51.783Z,37.88
2023-02-14T08:00:20.797Z,31.75
2023-02-14T08:02:49.602Z,36.17
2023-02-14T08:05:19.243Z,74.43
2023-02-14T08:07:50.580Z,44.65
2023-02-14T08:10:19.431Z,44.80
2023-02-14T08:13:00.267Z,34.78
2023-02-14T08:15:47.102Z,25.43
2023-02-14T08:18:17.925Z,26.27
2023-02-14T08:20:46.284Z,31.03
2023-02-14T08:23:16.713Z,34.83
2023-02-14T08:25:45.010Z,31.15
2023-02-14T08:28:15.101Z,35.72
2023-02-14T08:30:45.237Z,29.77
2023-02-14T08:33:13.788Z,28.55
2023-02-14T08:35:42.022Z,31.35
2023-02-14T08:38:10.754Z,35.20
2023-02-14T08:40:40.387Z,29.85
2023-02-14T08:43:09.308Z,35.30
2023-02-14T08:45:37.559Z,36.88
2023-02-14T08:48:08.787Z,34.22
2023-02-14T08:50:38.099Z,32.85
2023-02-14T08:53:08.804Z,44.72
2023-02-14T08:55:37.604Z,47.67
2023-02-14T08:58:08.530Z,47.42
2023-02-14T09:00:37.123Z,34.65
2023-02-14T09:03:06.091Z,36.00
2023-02-14T09:05:35.326Z,41.92
2023-02-14T09:08:04.350Z,31.75
2023-02-14T09:10:33.043Z,30.88
2023-02-14T09:13:02.381Z,27.73
2023-02-14T09:15:32.051Z,25.30
2023-02-14T09:18:00.719Z,24.63
2023-02-14T09:20:29.174Z,23.85
2023-02-14T09:22:57.948Z,24.20
2023-02-14T09:25:26.819Z,26.85
2023-02-14T09:27:56.023Z,25.65
2023-02-14T09:30:25.847Z,26.45
2023-02-14T09:32:56.129Z,24.10
2023-02-14T09:35:24.409Z,26.30
2023-02-14T09:38:10.972Z,30.20
2023-02-14T09:40:39.410Z,25.33
2023-02-14T09:43:13.469Z,30.08
2023-02-14T09:45:42.015Z,20.52
2023-02-14T09:48:20.201Z,25.77
2023-02-14T09:50:51.366Z,24.42
2023-02-14T09:55:55.492Z,34.25
2023-02-14T09:58:28.697Z,26.02
2023-02-14T10:00:59.883Z,33.72
2023-02-14T10:03:49.028Z,26.67
2023-02-14T10:06:27.916Z,32.85
2023-02-14T10:09:04.855Z,29.70
2023-02-14T10:11:33.304Z,30.95
2023-02-14T10:14:06.266Z,22.02
2023-02-14T10:16:40.344Z,24.92
2023-02-14T10:19:19.860Z,24.77
2023-02-14T10:21:53.016Z,22.52
2023-02-14T10:24:26.881Z,26.98
2023-02-14T10:26:58.929Z,22.30
2023-02-14T10:29:27.802Z,28.95
2023-02-14T10:31:59.324Z,35.83
2023-02-14T10:34:35.933Z,41.92
2023-02-14T10:37:22.299Z,27.70
2023-02-14T10:40:06.071Z,27.65
2023-02-14T10:42:40.088Z,27.15
2023-02-14T10:45:17.768Z,25.98
2023-02-14T10:47:51.743Z,29.75
2023-02-14T10:50:27.329Z,32.90
2023-02-14T10:53:03.885Z,22.85
2023-02-14T10:55:41.614Z,20.48
2023-02-14T10:58:13.721Z,13.93
2023-02-14T11:00:48.546Z,12.43
2023-02-14T11:03:17.112Z,19.67
2023-02-14T11:05:49.147Z,14.82
2023-02-14T11:08:27.059Z,14.57
2023-02-14T11:10:57.408Z,17.80
2023-02-14T11:13:32.189Z,19.42
2023-02-14T11:16:03.222Z,15.65
2023-02-14T11:18:37.010Z,15.95
2023-02-14T11:21:12.482Z,17.23
2023-02-14T11:23:42.591Z,21.40
2023-02-14T11:26:16.725Z,15.53
2023-02-14T11:28:50.583Z,23.98
2023-02-14T11:31:30.808Z,27.60
2023-02-14T11:34:00.172Z,39.67
2023-02-14T11:36:31.348Z,32.08
2023-02-14T11:39:05.168Z,34.92
2023-02-14T11:41:49.057Z,24.17
2023-02-14T11:44:22.910Z,24.92
2023-02-14T11:46:53.804Z,17.08
2023-02-14T11:49:29.378Z,13.88
2023-02-14T11:52:00.696Z,19.70
2023-02-14T11:54:36.822Z,16.20
2023-02-14T11:57:08.240Z,15.68
2023-02-14T11:59:39.773Z,15.90
2023-02-14T12:02:20.090Z,17.13
2023-02-14T12:04:50.138Z,17.70
2023-02-14T12:07:22.652Z,11.90
2023-02-14T12:10:07.842Z,21.05
2023-02-14T12:12:37.711Z,23.90
2023-02-14T12:15:25.181Z,23.02
2023-02-14T12:18:00.897Z,45.63
2023-02-14T12:20:38.383Z,22.10
2023-02-14T12:23:12.475Z,24.75
2023-02-14T12:25:44.123Z,21.33
2023-02-14T12:28:15.993Z,17.25
2023-02-14T12:30:44.375Z,32.83
2023-02-14T12:33:19.234Z,42.65
2023-02-14T12:35:55.963Z,24.95
2023-02-14T12:38:34.595Z,12.07
2023-02-14T12:41:10.233Z,12.23
2023-02-14T12:43:48.103Z,11.85
2023-02-14T12:46:29.514Z,18.55
2023-02-14T12:49:10.044Z,23.63
2023-02-14T12:51:42.436Z,25.13
2023-02-14T12:54:33.821Z,18.25
2023-02-14T12:57:09.420Z,19.77
2023-02-14T12:59:42.327Z,20.42
2023-02-14T13:02:37.197Z,19.42
2023-02-14T13:05:16.163Z,21.33
2023-02-14T13:08:01.444Z,23.08
2023-02-14T13:10:46.501Z,20.15
2023-02-14T13:13:22.561Z,21.20
2023-02-14T13:15:56.702Z,17.70
2023-02-14T13:18:35.456Z,17.77
2023-02-14T13:21:07.876Z,19.98
2023-02-14T13:23:39.723Z,14.57
2023-02-14T13:26:13.878Z,15.52
2023-02-14T13:28:50.350Z,13.02
2023-02-14T13:31:19.874Z,24.45
2023-02-14T13:33:52.503Z,17.48
2023-02-14T13:36:22.668Z,13.75
2023-02-14T13:38:52.738Z,17.58
2023-02-14T13:41:24.061Z,15.00
2023-02-14T13:43:56.230Z,16.40
2023-02-14T13:46:47.450Z,13.90
2023-02-14T13:49:25.880Z,19.63
2023-02-14T13:51:55.866Z,19.35
2023-02-14T13:54:41.140Z,19.45
2023-02-14T13:57:31.696Z,16.70
2023-02-14T14:00:39.716Z,18.85
2023-02-14T14:03:09.719Z,29.20
2023-02-14T14:06:03.678Z,33.15
2023-02-14T14:08:43.956Z,35.17
2023-02-14T14:11:15.413Z,27.90
2023-02-14T14:13:59.800Z,19.48
2023-02-14T14:16:31.472Z,16.80
2023-02-14T14:19:02.376Z,20.63
2023-02-14T14:21:32.303Z,32.00
2023-02-14T14:24:16.937Z,36.67
2023-02-14T14:26:46.910Z,46.20
2023-02-14T14:29:21.514Z,40.15
2023-02-14T14:31:55.964Z,26.10
2023-02-14T14:34:27.098Z,19.42
2023-02-14T14:37:03.340Z,18.17
2023-02-14T14:39:34.667Z,21.73
2023-02-14T14:42:11.115Z,24.42
2023-02-14T14:44:47.173Z,18.50
2023-02-14T14:47:19.484Z,18.73
2023-02-14T14:49:48.546Z,18.15
2023-02-14T14:52:28.726Z,17.05
2023-02-14T14:54:57.888Z,20.55
2023-02-14T14:57:26.700Z,16.85
2023-02-14T15:00:27.331Z,18.80
2023-02-14T15:03:15.917Z,20.27
2023-02-14T15:05:48.669Z,27.55
2023-02-14T15:08:24.555Z,26.35
2023-02-14T15:10:56.010Z,19.67
2023-02-14T15:13:49.807Z,23.15
2023-02-14T15:16:22.484Z,20.77
2023-02-14T15:18:51.981Z,24.35
2023-02-14T15:21:21.064Z,25.67
2023-02-14T15:23:50.499Z,33.28
2023-02-14T15:26:21.576Z,25.08
2023-02-14T15:28:56.598Z,25.33
2023-02-14T15:31:29.929Z,30.33
2023-02-14T15:34:00.276Z,32.17
2023-02-14T15:36:29.052Z,32.70
2023-02-14T15:38:58.289Z,35.75
2023-02-14T15:41:27.864Z,37.78
2023-02-14T15:43:57.731Z,35.85
2023-02-14T15:46:35.334Z,28.13
2023-02-14T15:49:10.786Z,28.35
2023-02-14T15:51:39.603Z,23.33
2023-02-14T15:54:09.306Z,20.85
2023-02-14T15:56:43.225Z,19.73
2023-02-14T15:59:18.714Z,20.08
2023-02-14T16:01:53.509Z,19.45
2023-02-14T16:04:26.316Z,19.90
2023-02-14T16:07:09.006Z,24.73
2023-02-14T16:09:37.862Z,29.48
2023-02-14T16:12:30.177Z,35.97
2023-02-14T16:15:18.014Z,33.20
2023-02-14T16:17:48.241Z,25.00
2023-02-14T16:20:30.270Z,26.65
2023-02-14T16:23:32.848Z,32.65
2023-02-14T16:26:01.135Z,34.15
2023-02-14T16:28:30.730Z,32.83
2023-02-14T16:31:00.661Z,31.50
2023-02-14T16:33:32.340Z,36.33
2023-02-14T16:36:06.594Z,32.25
2023-02-14T16:38:38.092Z,31.35
2023-02-14T16:41:26.187Z,39.00
2023-02-14T16:43:57.381Z,34.28
2023-02-14T16:46:26.995Z,26.20
2023-02-14T16:48:57.432Z,32.15
2023-02-14T16:51:28.478Z,27.70
2023-02-14T16:53:58.693Z,22.33
2023-02-14T16:56:30.199Z,23.83
2023-02-14T16:58:59.082Z,44.45
2023-02-14T17:01:27.534Z,28.58
2023-02-14T17:03:57.686Z,20.60
2023-02-14T17:06:28.722Z,17.88
2023-02-14T17:08:58.167Z,23.38
2023-02-14T17:11:27.928Z,21.20
2023-02-14T17:13:57.143Z,20.95
2023-02-14T17:16:25.827Z,15.35
2023-02-14T17:18:54.528Z,21.00
2023-02-14T17:21:25.123Z,21.17
2023-02-14T17:23:53.813Z,17.65
2023-02-14T17:26:22.865Z,37.60
2023-02-14T17:28:51.484Z,20.77
2023-02-14T17:31:20.690Z,26.40
2023-02-14T17:33:49.727Z,24.60
2023-02-14T17:36:18.142Z,18.10
2023-02-14T17:38:48.194Z,13.43
2023-02-14T17:41:18.741Z,15.57
2023-02-14T17:43:47.854Z,11.30
2023-02-14T17:46:18.738Z,21.08
2023-02-14T17:51:17.384Z,15.75
2023-02-14T17:53:47.488Z,15.35
2023-02-14T17:56:17.993Z,19.35
2023-02-14T17:58:48.020Z,18.17
2023-02-14T18:01:18.249Z,16.98
2023-02-14T18:03:47.304Z,16.63
2023-02-14T18:06:15.995Z,16.85
2023-02-14T18:08:49.482Z,18.95
2023-02-14T18:11:20.130Z,18.60
2023-02-14T18:13:49.827Z,16.42
2023-02-14T18:16:19.762Z,15.98
2023-02-14T18:18:48.962Z,16.85
2023-02-14T18:21:19.482Z,18.17
2023-02-14T18:23:49.935Z,25.80
2023-02-14T18:26:19.382Z,20.20
2023-02-14T18:28:49.015Z,18.63
2023-02-14T18:31:18.767Z,24.20
2023-02-14T18:33:48.497Z,17.90
2023-02-14T18:36:18.598Z,21.00
2023-02-14T18:38:49.697Z,17.67
2023-02-14T18:41:19.963Z,20.05
2023-02-14T18:43:49.436Z,18.05
2023-02-14T18:46:19.499Z,18.25
2023-02-14T18:48:48.540Z,20.60
2023-02-14T18:51:18.868Z,21.65
2023-02-14T18:53:52.305Z,18.48
2023-02-14T18:56:23.794Z,19.88
2023-02-14T18:58:58.003Z,23.38
2023-02-14T19:01:29.338Z,21.65
2023-02-14T19:03:59.753Z,21.42
2023-02-14T19:06:29.491Z,41.05
2023-02-14T19:09:00.263Z,44.90
2023-02-14T19:11:31.684Z,21.83
2023-02-14T19:14:02.319Z,17.33
2023-02-14T19:16:33.509Z,21.95
2023-02-14T19:19:03.004Z,20.33
2023-02-14T19:21:33.730Z,21.23
2023-02-14T19:24:07.108Z,20.35
2023-02-14T19:26:40.765Z,25.58
2023-02-14T19:29:11.259Z,27.85
2023-02-14T19:31:42.121Z,23.90
2023-02-14T19:36:43.871Z,22.10
2023-02-14T19:39:15.058Z,19.60
2023-02-14T19:41:43.810Z,19.42
2023-02-14T19:44:14.863Z,21.98
2023-02-14T19:46:44.092Z,26.08
2023-02-14T19:49:15.232Z,40.72
2023-02-14T19:51:43.677Z,51.65
2023-02-14T19:54:14.262Z,36.75
2023-02-14T19:56:45.159Z,38.97
2023-02-14T19:59:19.799Z,49.50
2023-02-14T20:01:49.513Z,179.68
2023-02-14T20:04:20.414Z,220.07
2023-02-14T20:06:49.053Z,250.30
2023-02-14T20:09:21.898Z,183.55
2023-02-14T20:11:51.662Z,186.35
2023-02-14T20:14:21.910Z,242.50
2023-02-14T20:16:50.689Z,77.47
2023-02-14T20:19:21.031Z,34.05
2023-02-14T20:21:50.666Z,22.48
2023-02-14T20:24:22.426Z,26.58
2023-02-14T20:26:53.133Z,54.08
2023-02-14T20:29:23.573Z,81.45
2023-02-14T20:31:53.452Z,63.00
2023-02-14T20:34:22.560Z,58.63
2023-02-14T20:36:56.127Z,71.60
2023-02-14T20:39:30.250Z,40.40
2023-02-14T20:41:58.781Z,66.03
2023-02-14T20:44:27.384Z,71.50
2023-02-14T20:46:56.898Z,79.78
2023-02-14T20:49:26.838Z,68.28
2023-02-14T20:51:56.149Z,62.97
2023-02-14T20:54:27.394Z,57.22
2023-02-14T20:56:55.947Z,36.15
2023-02-14T20:59:27.328Z,24.75
2023-02-14T21:01:56.112Z,15.80
2023-02-14T21:04:25.042Z,12.80
2023-02-14T21:06:53.609Z,12.10
2023-02-14T21:09:22.220Z,18.42
2023-02-14T21:11:53.973Z,25.33
2023-02-14T21:14:22.601Z,33.42
2023-02-14T21:16:50.881Z,20.70
2023-02-14T21:19:19.862Z,14.48
2023-02-14T21:21:48.200Z,14.27
2023-02-14T21:24:17.458Z,17.52
2023-02-14T21:26:46.414Z,12.38
2023-02-14T21:29:16.256Z,15.95
2023-02-14T21:31:44.953Z,13.95
2023-02-14T21:34:15.692Z,17.25
2023-02-14T21:36:44.050Z,14.33
2023-02-14T21:39:12.600Z,11.20
2023-02-14T21:41:42.163Z,13.82
2023-02-14T21:44:31.496Z,12.65
2023-02-14T21:47:01.107Z,24.88
2023-02-14T21:49:46.856Z,16.85
2023-02-14T21:52:15.089Z,17.33
2023-02-14T21:54:43.625Z,12.90
2023-02-14T21:57:11.985Z,13.25
2023-02-14T21:59:41.847Z,14.57
2023-02-14T22:02:12.416Z,12.23
2023-02-14T22:04:43.234Z,13.85
2023-02-14T22:07:11.474Z,14.57
2023-02-14T22:09:40.037Z,13.65
2023-02-14T22:12:08.696Z,15.13
2023-02-14T22:14:37.254Z,15.43
2023-02-14T22:17:05.716Z,14.50
2023-02-14T22:19:36.906Z,14.75
2023-02-14T22:22:05.532Z,14.98
2023-02-14T22:24:34.127Z,17.15
2023-02-14T22:27:02.660Z,17.80
2023-02-14T22:29:31.143Z,18.70
2023-02-14T22:31:59.834Z,16.13
2023-02-14T22:34:28.392Z,17.70
2023-02-14T22:36:58.043Z,31.27
2023-02-14T22:39:26.827Z,34.50
2023-02-14T22:41:55.454Z,29.90
2023-02-14T22:44:23.910Z,31.00
2023-02-14T22:46:52.538Z,26.10
2023-02-14T22:49:21.013Z,24.40
2023-02-14T22:51:49.302Z,20.33
2023-02-14T22:54:19.374Z,23.38
2023-02-14T22:56:48.985Z,23.35
2023-02-14T22:59:19.851Z,24.40
2023-02-14T23:01:48.811Z,22.80
2023-02-14T23:04:18.577Z,20.80
2023-02-14T23:06:47.082Z,22.60
2023-02-14T23:09:16.525Z,28.92
2023-02-14T23:11:46.886Z,26.48
2023-02-14T23:14:34.704Z,22.73
2023-02-14T23:17:20.722Z,28.30
2023-02-14T23:20:06.672Z,23.15
2023-02-14T23:22:37.174Z,30.50
2023-02-14T23:25:08.884Z,38.83
2023-02-14T23:27:40.375Z,31.92
2023-02-14T23:30:11.120Z,40.33
2023-02-14T23:32:40.012Z,37.60
2023-02-14T23:35:08.852Z,44.03
2023-02-14T23:37:37.086Z,33.85
2023-02-14T23:40:07.043Z,35.03
2023-02-14T23:42:35.489Z,36.38
2023-02-14T23:45:19.733Z,27.48
2023-02-14T23:47:48.539Z,31.92
2023-02-14T23:50:17.358Z,30.30
2023-02-14T23:52:45.688Z,28.02
2023-02-14T23:55:14.383Z,36.10
2023-02-14T23:57:42.787Z,28.33
